Time;durP1;ratioP1;P1;durP2;ratioP2;P2;SDS_P1;SDS_P2;PMS_P1;PMS_P2;Temp;Humidity;BMP_temperature;BMP_pressure;BME280_temperature;BME280_humidity;BME280_pressure;Samples;Min_cycle;Max_cycle;Signal;HPM_P1;HPM_P2
2023/06/12 00:01:59;;;;;;;10.95;5.90;;;;;;;24.22;38.45;100345.91;4957646;28;20238;-70
2023/06/12 00:04:27;;;;;;;9.02;6.07;;;;;;;24.20;38.11;100348.00;4958846;28;20231;-73
2023/06/12 00:06:57;;;;;;;7.55;5.10;;;;;;;24.16;38.23;100343.31;4957595;28;20207;-71
2023/06/12 00:09:25;;;;;;;7.65;5.32;;;;;;;24.11;38.36;100341.31;4955866;28;20326;-71
2023/06/12 00:11:52;;;;;;;9.13;5.60;;;;;;;24.06;38.34;100343.94;4958875;28;20230;-71
2023/06/12 00:14:21;;;;;;;7.43;5.68;;;;;;;24.07;38.44;100347.47;4955813;28;20207;-71
2023/06/12 00:16:49;;;;;;;8.43;5.28;;;;;;;24.05;38.18;100347.69;4958672;28;20289;-70
2023/06/12 00:19:17;;;;;;;7.30;5.30;;;;;;;24.02;38.33;100354.41;4958534;28;20237;-71
2023/06/12 00:21:45;;;;;;;10.27;5.80;;;;;;;24.01;38.33;100351.97;4958714;28;20311;-70
2023/06/12 00:24:14;;;;;;;10.68;5.75;;;;;;;;;;4958467;28;20238;-73
2023/06/12 00:26:42;;;;;;;8.75;5.75;;;;;;;23.90;38.35;100355.50;4956569;28;20624;-72
2023/06/12 00:29:09;;;;;;;14.15;6.45;;;;;;;23.84;38.48;100356.44;4955581;28;20245;-71
2023/06/12 00:31:37;;;;;;;11.27;5.60;;;;;;;23.85;38.08;100355.38;4959682;28;20227;-71
2023/06/12 00:34:05;;;;;;;11.43;5.90;;;;;;;23.81;38.04;100352.34;4955679;28;20290;-72
2023/06/12 00:36:32;;;;;;;9.55;5.45;;;;;;;23.76;38.18;100345.97;4956231;28;21096;-72
2023/06/12 00:39:00;;;;;;;13.27;5.80;;;;;;;23.71;38.50;100346.72;4957153;28;20736;-73
2023/06/12 00:41:29;;;;;;;6.85;4.80;;;;;;;23.73;38.66;100351.88;4955075;28;20628;-70
2023/06/12 00:43:57;;;;;;;7.75;6.10;;;;;;;23.73;38.23;100354.59;4955608;28;20270;-71
2023/06/12 00:46:25;;;;;;;8.48;6.05;;;;;;;23.67;38.46;100355.53;4953933;28;20217;-73
2023/06/12 00:48:53;;;;;;;10.98;6.25;;;;;;;23.60;38.68;100359.19;4956310;28;20214;-73
2023/06/12 00:51:21;;;;;;;8.52;5.90;;;;;;;23.58;38.91;100363.19;4955901;28;20259;-71
2023/06/12 00:53:52;;;;;;;8.15;5.68;;;;;;;23.59;38.83;100365.66;4954222;28;20207;-69
2023/06/12 00:56:19;;;;;;;7.35;5.60;;;;;;;23.57;38.81;100367.75;4955629;28;20349;-72
2023/06/12 00:58:49;;;;;;;9.27;5.85;;;;;;;23.56;38.46;100368.84;4956767;28;20200;-69
2023/06/12 01:01:25;;;;;;;9.40;5.63;;;;;;;23.51;38.74;100368.72;4954900;28;20621;-71
2023/06/12 01:03:56;;;;;;;7.85;6.00;;;;;;;23.49;38.83;100362.69;4952069;28;20214;-70
2023/06/12 01:06:34;;;;;;;7.25;5.78;;;;;;;23.45;39.01;100366.91;4954575;28;20217;-69
2023/06/12 01:09:10;;;;;;;9.73;6.10;;;;;;;23.42;39.31;100364.69;4953884;28;20243;-74
2023/06/12 01:11:39;;;;;;;8.20;6.22;;;;;;;23.40;39.10;100364.06;4954992;28;20697;-72
2023/06/12 01:14:08;;;;;;;7.72;5.88;;;;;;;23.40;39.27;100360.53;4954294;28;20214;-71
2023/06/12 01:16:36;;;;;;;8.70;5.95;;;;;;;23.40;39.21;100360.53;4952731;28;20207;-73
2023/06/12 01:19:05;;;;;;;8.20;5.57;;;;;;;23.40;39.27;100364.06;4954764;28;20283;-72
2023/06/12 01:21:35;;;;;;;8.15;5.95;;;;;;;23.39;39.50;100364.34;4956666;28;20222;-71
2023/06/12 01:24:30;;;;;;;7.82;5.75;;;;;;;23.40;39.68;100366.78;4954232;28;20262;-71
2023/06/12 01:27:20;;;;;;;8.07;6.00;;;;;;;23.36;39.66;100362.91;4950895;28;20211;-74
2023/06/12 01:30:07;;;;;;;9.13;5.85;;;;;;;23.36;39.64;100371.03;4957577;28;20203;-70
2023/06/12 01:32:37;;;;;;;11.43;5.80;;;;;;;23.36;39.92;100367.50;4956525;28;21271;-74
2023/06/12 01:35:09;;;;;;;7.75;5.90;;;;;;;23.34;39.84;100373.13;4954431;28;20665;-71
2023/06/12 01:37:43;;;;;;;7.78;5.93;;;;;;;23.31;40.12;100365.47;4955217;28;20271;-72
2023/06/12 01:40:13;;;;;;;7.15;5.85;;;;;;;23.30;39.97;100373.84;4954510;28;20505;-72
2023/06/12 01:42:42;;;;;;;8.65;5.72;;;;;;;23.26;40.14;100366.19;4956442;28;20211;-71
2023/06/12 01:45:10;;;;;;;8.45;6.13;;;;;;;23.25;40.13;100371.84;4956310;28;21818;-71
2023/06/12 01:47:39;;;;;;;8.43;6.07;;;;;;;23.22;40.30;100369.59;4957337;28;20211;-71
2023/06/12 01:50:08;;;;;;;11.55;6.13;;;;;;;23.18;40.37;100373.84;4955303;28;20715;-74
2023/06/12 01:52:38;;;;;;;7.88;6.78;;;;;;;23.19;40.59;100375.47;4957796;28;20825;-73
2023/06/12 01:55:06;;;;;;;7.47;5.40;;;;;;;23.10;40.71;100369.59;4955604;28;20771;-72
2023/06/12 01:57:36;;;;;;;9.52;5.63;;;;;;;23.06;40.77;100370.28;4954305;28;20218;-70
2023/06/12 02:00:05;;;;;;;8.30;6.50;;;;;;;23.06;41.20;100370.28;4954708;28;20277;-74
2023/06/12 02:02:33;;;;;;;14.00;6.72;;;;;;;22.95;41.03;100373.78;4954786;28;20221;-71
2023/06/12 02:05:02;;;;;;;12.80;6.55;;;;;;;22.94;41.11;100372.13;4953160;28;20217;-71
2023/06/12 02:07:30;;;;;;;8.40;6.43;;;;;;;22.97;40.90;100377.91;4955564;28;20313;-74
2023/06/12 02:09:58;;;;;;;9.45;5.97;;;;;;;23.00;40.95;100376.63;4955239;28;20299;-72
2023/06/12 02:12:26;;;;;;;7.77;6.00;;;;;;;22.99;41.05;100377.66;4951397;28;20234;-71
2023/06/12 02:14:55;;;;;;;8.48;6.20;;;;;;;23.01;40.96;100372.84;4954350;28;20298;-71
2023/06/12 02:17:23;;;;;;;9.77;6.30;;;;;;;23.02;41.28;100374.50;4955777;28;20207;-72
2023/06/12 02:19:50;;;;;;;9.07;6.10;;;;;;;22.93;41.67;100378.59;4953288;28;20214;-72
2023/06/12 02:22:19;;;;;;;9.23;6.45;;;;;;;22.91;41.26;100373.41;4954348;28;20214;-70
2023/06/12 02:24:47;;;;;;;8.95;6.05;;;;;;;22.93;41.64;100379.44;4955649;28;20755;-71
2023/06/12 02:27:15;;;;;;;9.98;6.82;;;;;;;22.86;41.94;100376.81;4954846;28;20242;-70
2023/06/12 02:29:42;;;;;;;8.23;6.05;;;;;;;22.83;41.71;100376.44;4954010;28;20651;-71
2023/06/12 02:32:12;;;;;;;9.32;6.63;;;;;;;22.81;42.03;100373.16;4955662;28;21119;-72
2023/06/12 02:34:40;;;;;;;9.02;5.28;;;;;;;22.78;41.64;100379.84;4956554;28;20222;-71
2023/06/12 02:37:09;;;;;;;9.30;6.38;;;;;;;22.78;42.00;100368.22;4953956;28;20239;-71
2023/06/12 02:39:40;;;;;;;8.30;6.30;;;;;;;22.80;41.68;100369.63;4953462;28;20203;-71
2023/06/12 02:42:08;;;;;;;7.88;6.22;;;;;;;22.79;41.70;100369.84;4956425;28;20219;-71
2023/06/12 02:44:37;;;;;;;8.33;6.43;;;;;;;22.79;41.89;100376.06;4954241;28;20211;-71
2023/06/12 02:47:05;;;;;;;10.07;5.97;;;;;;;22.69;42.07;100370.38;4955358;28;20213;-71
2023/06/12 02:49:33;;;;;;;9.63;6.00;;;;;;;22.65;42.41;100371.91;4958086;28;20198;-71
2023/06/12 02:52:01;;;;;;;10.55;6.03;;;;;;;22.68;42.18;100378.72;4955922;28;21815;-71
2023/06/12 02:54:28;;;;;;;11.82;6.63;;;;;;;22.70;42.06;100373.91;4955215;28;20262;-70
2023/06/12 02:57:00;;;;;;;9.00;6.13;;;;;;;22.63;41.94;100371.28;4955486;28;20207;-72
2023/06/12 02:59:33;;;;;;;9.37;6.20;;;;;;;22.64;42.11;100381.06;4965197;28;20302;-72
2023/06/12 03:02:00;;;;;;;8.57;5.97;;;;;;;22.50;42.68;100383.13;4961425;28;20218;-71
2023/06/12 03:04:28;;;;;;;9.50;6.53;;;;;;;22.42;42.69;100382.63;4955421;28;20249;-70
2023/06/12 03:06:56;;;;;;;10.67;6.67;;;;;;;22.44;42.86;100380.47;4955649;28;20281;-72
2023/06/12 03:09:24;;;;;;;12.63;7.03;;;;;;;22.49;42.64;100391.44;4956356;28;20226;-73
2023/06/12 03:11:54;;;;;;;8.40;6.67;;;;;;;22.54;42.12;100383.47;4954822;28;20970;-71
2023/06/12 03:14:24;;;;;;;9.50;6.00;;;;;;;22.58;41.88;100389.25;4953352;28;20245;-73
2023/06/12 03:16:52;;;;;;;8.83;5.53;;;;;;;22.60;42.16;100390.69;4955334;28;20230;-74
2023/06/12 03:19:19;;;;;;;9.87;6.13;;;;;;;22.61;42.16;100389.59;4953398;28;20699;-71
2023/06/12 03:21:47;;;;;;;8.43;6.32;;;;;;;22.62;41.95;100395.84;4953629;28;20622;-71
2023/06/12 03:24:15;;;;;;;8.57;6.27;;;;;;;22.61;42.09;100395.00;4956186;28;20589;-70
2023/06/12 03:26:43;;;;;;;7.53;6.00;;;;;;;22.63;42.17;100402.91;4951962;28;20576;-72
2023/06/12 03:29:11;;;;;;;9.57;5.77;;;;;;;22.65;41.92;100400.78;4954504;28;20716;-71
2023/06/12 03:31:40;;;;;;;9.83;6.00;;;;;;;22.66;41.71;100400.56;4956681;28;20211;-73
2023/06/12 03:34:08;;;;;;;10.50;6.77;;;;;;;22.63;42.18;100409.13;4953981;28;20720;-71
2023/06/12 03:36:37;;;;;;;8.10;6.50;;;;;;;22.51;42.16;100408.25;4953773;28;20688;-70
2023/06/12 03:39:09;;;;;;;9.03;6.47;;;;;;;22.46;42.76;100402.69;4954102;28;20725;-70
2023/06/12 03:41:37;;;;;;;8.53;7.10;;;;;;;22.32;42.83;100404.75;4959077;28;21114;-72
2023/06/12 03:44:05;;;;;;;11.67;7.40;;;;;;;22.38;42.84;100413.81;4961993;28;20317;-71
2023/06/12 03:46:32;;;;;;;16.13;7.10;;;;;;;22.38;42.58;100416.53;4959489;28;20214;-70
2023/06/12 03:49:02;;;;;;;14.53;7.10;;;;;;;22.31;42.59;100410.38;4957225;28;20253;-71
2023/06/12 03:51:30;;;;;;;9.20;6.63;;;;;;;22.27;42.85;100428.06;4958725;28;20584;-73
2023/06/12 03:53:57;;;;;;;13.37;6.73;;;;;;;22.24;42.93;100432.06;4959971;28;22043;-73
2023/06/12 03:56:25;;;;;;;12.00;6.27;;;;;;;22.31;42.72;100435.53;4960073;28;20971;-70
2023/06/12 03:58:53;;;;;;;9.23;6.80;;;;;;;22.36;42.60;100432.13;4958170;28;20266;-70
2023/06/12 04:01:21;;;;;;;9.77;6.13;;;;;;;22.35;42.62;100441.28;4958431;28;20212;-71
2023/06/12 04:03:49;;;;;;;12.30;6.43;;;;;;;22.32;42.48;100445.28;4959160;28;20257;-73
2023/06/12 04:06:18;;;;;;;8.43;6.47;;;;;;;22.34;42.50;100450.47;4956414;28;20243;-72
2023/06/12 04:08:46;;;;;;;17.97;7.63;;;;;;;22.34;42.74;100456.66;4956306;28;20208;-73
2023/06/12 04:11:14;;;;;;;14.80;8.17;;;;;;;22.35;42.49;100458.31;4958389;28;21086;-70
2023/06/12 04:13:42;;;;;;;12.53;6.57;;;;;;;22.34;42.50;100455.84;4956815;28;20294;-71
2023/06/12 04:16:10;;;;;;;11.30;6.10;;;;;;;22.29;42.77;100451.13;4957149;28;20295;-71
2023/06/12 04:18:38;;;;;;;10.57;6.07;;;;;;;22.26;42.84;100456.13;4956548;28;20207;-72
2023/06/12 04:21:06;;;;;;;8.63;6.23;;;;;;;22.20;43.03;100459.75;4958043;28;20246;-71
2023/06/12 04:23:37;;;;;;;8.00;5.77;;;;;;;22.06;43.71;100462.59;4958652;28;20724;-70
2023/06/12 04:26:05;;;;;;;10.30;6.60;;;;;;;22.02;43.69;100469.47;4958355;28;20218;-72
2023/06/12 04:28:33;;;;;;;11.30;6.47;;;;;;;22.02;43.64;100465.94;4960225;28;20322;-73
2023/06/12 04:31:02;;;;;;;7.77;5.87;;;;;;;21.98;43.77;100462.06;4961361;28;20676;-72
2023/06/12 04:33:32;;;;;;;9.07;6.23;;;;;;;21.96;44.32;100470.34;4966119;28;20277;-71
2023/06/12 04:36:01;;;;;;;8.70;6.27;;;;;;;21.96;43.79;100469.50;4964095;28;20241;-70
2023/06/12 04:38:31;;;;;;;9.13;6.80;;;;;;;22.03;43.77;100475.69;4961028;28;20207;-72
2023/06/12 04:41:00;;;;;;;7.07;5.33;;;;;;;22.10;43.30;100474.59;4955890;28;20234;-71
2023/06/12 04:43:28;;;;;;;9.17;6.00;;;;;;;22.18;43.20;100472.63;4957981;28;20222;-70
2023/06/12 04:45:55;;;;;;;9.37;5.70;;;;;;;22.24;43.45;100471.75;4958270;28;20210;-73
2023/06/12 04:48:26;;;;;;;11.10;5.87;;;;;;;22.26;43.56;100461.53;4956474;28;20214;-71
2023/06/12 04:50:54;;;;;;;8.53;5.90;;;;;;;22.29;43.35;100466.50;4954258;28;20210;-74
2023/06/12 04:53:27;;;;;;;11.53;6.90;;;;;;;22.34;43.33;100463.97;4956203;28;20645;-71
2023/06/12 04:55:56;;;;;;;9.80;6.50;;;;;;;22.26;43.61;100466.94;4955204;28;20266;-74
2023/06/12 04:58:25;;;;;;;11.27;6.70;;;;;;;22.26;43.50;100464.22;4958134;28;20208;-70
2023/06/12 05:00:55;;;;;;;7.70;6.07;;;;;;;22.30;43.59;100457.34;4956837;28;20209;-73
2023/06/12 05:03:23;;;;;;;8.33;6.20;;;;;;;22.36;43.42;100465.38;4957049;28;20274;-71
2023/06/12 05:05:57;;;;;;;9.70;6.17;;;;;;;22.39;43.32;100462.22;4957999;28;20257;-74
2023/06/12 05:08:25;;;;;;;15.13;7.70;;;;;;;22.42;43.33;100466.38;4956925;28;20210;-71
2023/06/12 05:10:53;;;;;;;11.27;6.60;;;;;;;22.45;43.36;100465.88;4955782;28;20979;-72
2023/06/12 05:13:20;;;;;;;10.10;6.23;;;;;;;22.48;43.23;100468.16;4958633;28;20231;-74
2023/06/12 05:15:50;;;;;;;10.10;6.30;;;;;;;22.51;43.28;100470.41;4953717;28;20257;-72
2023/06/12 05:18:17;;;;;;;11.93;6.87;;;;;;;22.46;43.79;100462.13;4955196;28;20214;-71
2023/06/12 05:20:45;;;;;;;8.47;6.07;;;;;;;22.42;43.85;100469.91;4956054;28;20225;-71
2023/06/12 05:23:13;;;;;;;10.67;6.30;;;;;;;22.41;43.91;100459.31;4954650;28;20239;-72
2023/06/12 05:25:43;;;;;;;10.03;5.87;;;;;;;22.47;43.96;100466.50;4956392;28;20298;-71
2023/06/12 05:28:11;;;;;;;11.40;6.50;;;;;;;22.49;43.93;100461.69;4954839;28;20231;-74
2023/06/12 05:30:39;;;;;;;8.43;5.90;;;;;;;22.56;43.56;100457.03;4954599;28;20345;-73
2023/06/12 05:33:08;;;;;;;12.23;6.43;;;;;;;22.61;43.95;100457.16;4953606;28;20215;-74
2023/06/12 05:35:35;;;;;;;9.07;6.70;;;;;;;22.64;44.78;100459.44;4954244;28;20744;-73
2023/06/12 05:38:03;;;;;;;15.52;6.07;;;;;;;22.60;44.23;100463.66;4957067;28;21448;-73
2023/06/12 05:40:31;;;;;;;11.63;6.30;;;;;;;22.60;44.27;100458.25;4957321;28;20732;-77
2023/06/12 05:42:59;;;;;;;9.43;6.00;;;;;;;22.64;44.03;100459.44;4958664;28;20257;-72
2023/06/12 05:45:27;;;;;;;11.67;6.13;;;;;;;22.72;44.31;100455.59;4953784;28;20648;-72
2023/06/12 05:47:55;;;;;;;12.97;6.70;;;;;;;22.75;44.59;100456.00;4956355;28;20641;-71
2023/06/12 05:50:24;;;;;;;8.83;6.50;;;;;;;22.79;44.42;100457.19;4958394;28;20218;-72
2023/06/12 05:52:52;;;;;;;10.50;6.10;;;;;;;22.87;44.35;100458.72;4956110;28;20230;-73
2023/06/12 05:55:20;;;;;;;9.17;6.23;;;;;;;22.91;44.57;100454.53;4955121;28;20799;-73
2023/06/12 05:57:47;;;;;;;10.43;6.30;;;;;;;22.97;44.42;100456.31;4957458;28;20213;-72
2023/06/12 06:00:22;;;;;;;9.40;6.43;;;;;;;23.06;44.37;100462.22;4956017;28;20214;-72
2023/06/12 06:02:49;;;;;;;14.47;6.43;;;;;;;23.10;44.42;100458.00;4953448;28;20319;-72
2023/06/12 06:05:18;;;;;;;9.80;6.20;;;;;;;23.12;44.08;100459.44;4953986;28;20218;-74
2023/06/12 06:07:50;;;;;;;10.38;6.28;;;;;;;23.19;44.23;100451.22;4958360;28;20287;-71
2023/06/12 06:10:18;;;;;;;10.07;6.22;;;;;;;23.25;44.30;100448.41;4958944;28;20211;-74
2023/06/12 06:12:45;;;;;;;8.23;5.63;;;;;;;23.32;44.06;100458.28;4954778;28;20301;-73
2023/06/12 06:15:13;;;;;;;9.18;5.80;;;;;;;23.36;44.82;100463.03;4953781;28;20318;-75
2023/06/12 06:17:42;;;;;;;18.92;6.97;;;;;;;23.38;44.70;100460.09;4952957;28;20269;-73
2023/06/12 06:20:11;;;;;;;12.57;7.40;;;;;;;23.45;44.49;100466.22;4956516;28;20276;-71
2023/06/12 06:22:41;;;;;;;11.77;7.13;;;;;;;23.49;44.31;100473.66;4952108;28;20202;-71
2023/06/12 06:25:10;;;;;;;10.68;7.00;;;;;;;23.55;44.29;100471.91;4949563;28;20333;-73
2023/06/12 06:27:38;;;;;;;10.20;5.75;;;;;;;23.58;44.01;100472.25;4953320;28;20238;-75
2023/06/12 06:30:07;;;;;;;10.77;6.68;;;;;;;23.66;44.05;100473.00;4952222;28;20211;-72
2023/06/12 06:32:34;;;;;;;14.23;6.75;;;;;;;23.71;44.64;100475.81;4954202;28;20215;-71
2023/06/12 06:35:03;;;;;;;16.00;6.10;;;;;;;23.73;44.30;100479.13;4955669;28;20261;-73
2023/06/12 06:37:31;;;;;;;13.63;6.72;;;;;;;23.76;44.68;100481.34;4954423;28;20214;-73
2023/06/12 06:39:59;;;;;;;18.13;6.65;;;;;;;23.80;44.58;100479.84;4952810;28;20293;-69
2023/06/12 06:42:29;;;;;;;10.82;7.05;;;;;;;23.83;44.37;100484.78;4955393;28;20219;-70
2023/06/12 06:44:57;;;;;;;11.38;6.03;;;;;;;23.86;44.29;100479.72;4955701;28;20247;-75
2023/06/12 06:47:24;;;;;;;10.88;6.85;;;;;;;23.89;44.40;100483.84;4956221;28;20310;-71
2023/06/12 06:49:56;;;;;;;13.25;6.90;;;;;;;23.94;44.87;100482.06;4955276;28;21045;-72
2023/06/12 06:52:26;;;;;;;10.48;6.22;;;;;;;23.99;44.23;100493.03;4965752;28;20203;-71
2023/06/12 06:54:54;;;;;;;15.35;6.72;;;;;;;24.06;44.92;100490.19;4953198;28;20488;-71
2023/06/12 06:57:22;;;;;;;14.88;6.22;;;;;;;24.10;44.41;100494.06;4952007;28;20209;-78
2023/06/12 06:59:54;;;;;;;18.90;6.47;;;;;;;24.17;45.30;100494.78;4953125;28;20221;-69
2023/06/12 07:02:22;;;;;;;13.35;6.20;;;;;;;24.23;45.91;100490.34;4951841;28;20216;-64
2023/06/12 07:04:51;;;;;;;9.55;6.70;;;;;;;24.30;46.66;100494.56;4952739;28;20322;-65
2023/06/12 07:07:18;;;;;;;7.53;5.93;;;;;;;24.36;46.42;100496.31;4951242;28;20300;-69
2023/06/12 07:09:46;;;;;;;10.57;5.72;;;;;;;24.43;44.07;100492.69;4951933;28;20218;-65
2023/06/12 07:12:14;;;;;;;7.85;6.05;;;;;;;24.51;44.61;100495.00;4952127;28;20217;-64
2023/06/12 07:14:42;;;;;;;11.88;6.38;;;;;;;24.57;45.05;100496.75;4951321;28;20298;-66
2023/06/12 07:17:11;;;;;;;9.52;5.07;;;;;;;24.65;43.56;100496.38;4953754;28;20410;-66
2023/06/12 07:19:39;;;;;;;13.13;5.90;;;;;;;24.72;43.85;100494.34;4953260;28;20265;-68
2023/06/12 07:22:07;;;;;;;8.68;5.60;;;;;;;24.78;43.37;100503.44;4955325;28;20215;-66
2023/06/12 07:24:35;;;;;;;10.55;5.65;;;;;;;24.76;43.01;100495.53;4956927;28;20242;-65
2023/06/12 07:27:03;;;;;;;8.40;5.57;;;;;;;24.82;43.00;100493.75;4953262;28;20569;-67
2023/06/12 07:29:31;;;;;;;6.40;5.03;;;;;;;24.85;42.90;100487.84;4954309;28;20492;-71
2023/06/12 07:31:58;;;;;;;9.55;5.00;;;;;;;24.93;42.79;100493.75;4959904;28;20215;-67
2023/06/12 07:34:27;;;;;;;9.00;5.15;;;;;;;24.91;42.34;100485.00;4958492;28;20211;-65
2023/06/12 07:36:56;;;;;;;8.60;5.13;;;;;;;24.96;42.64;100489.72;4959869;28;20215;-68
2023/06/12 07:39:23;;;;;;;7.35;5.53;;;;;;;25.03;41.67;100484.97;4957870;28;20258;-68
2023/06/12 07:41:51;;;;;;;6.43;5.15;;;;;;;25.08;41.80;100479.63;4956289;28;20215;-67
2023/06/12 07:44:20;;;;;;;6.97;5.70;;;;;;;25.13;41.86;100485.16;4961611;28;20280;-65
2023/06/12 07:46:47;;;;;;;7.50;5.70;;;;;;;25.13;42.12;100479.75;4956406;28;20298;-64
2023/06/12 07:49:17;;;;;;;7.63;5.35;;;;;;;25.20;41.97;100485.00;4957186;28;20704;-70
2023/06/12 07:51:46;;;;;;;7.55;5.53;;;;;;;25.21;42.00;100483.94;4956328;28;20210;-66
2023/06/12 07:54:14;;;;;;;8.57;5.82;;;;;;;25.31;41.86;100493.09;4957510;28;20238;-67
2023/06/12 07:56:44;;;;;;;13.35;5.60;;;;;;;25.32;41.65;100483.06;4958886;28;20289;-70
2023/06/12 07:59:12;;;;;;;7.78;5.90;;;;;;;25.37;41.76;100485.88;4956756;28;20212;-68
2023/06/12 08:01:40;;;;;;;6.65;5.60;;;;;;;25.40;41.71;100488.09;4957444;28;20685;-69
2023/06/12 08:04:10;;;;;;;6.13;5.25;;;;;;;25.44;41.39;100470.25;4956325;28;20210;-69
2023/06/12 08:06:39;;;;;;;14.50;5.72;;;;;;;25.49;41.58;100470.34;4957960;28;20222;-67
2023/06/12 08:09:09;;;;;;;11.75;6.03;;;;;;;25.60;41.49;100466.72;4957213;28;20215;-72
2023/06/12 08:11:37;;;;;;;8.52;5.85;;;;;;;25.68;41.15;100466.31;4956878;28;20208;-71
2023/06/12 08:14:05;;;;;;;8.52;5.63;;;;;;;25.68;41.54;100466.31;4957815;28;20215;-69
2023/06/12 08:16:32;;;;;;;8.27;5.28;;;;;;;25.75;41.00;100467.00;4954935;28;20248;-72
2023/06/12 08:19:00;;;;;;;8.10;5.35;;;;;;;25.78;41.48;100466.47;4953780;28;20204;-67
2023/06/12 08:21:29;;;;;;;7.28;5.60;;;;;;;25.83;41.20;100469.28;4954996;28;20215;-70
2023/06/12 08:23:57;;;;;;;10.70;6.03;;;;;;;25.94;41.48;100469.47;4954030;28;21135;-69
2023/06/12 08:26:26;;;;;;;8.15;5.57;;;;;;;25.98;41.67;100467.88;4954693;28;20216;-70
2023/06/12 08:28:54;;;;;;;10.32;5.90;;;;;;;26.08;41.60;100462.59;4959941;28;20242;-69
2023/06/12 08:31:23;;;;;;;7.13;5.00;;;;;;;26.19;41.30;100457.06;4958509;28;20217;-69
2023/06/12 08:33:51;;;;;;;8.10;5.75;;;;;;;26.22;41.11;100464.69;4958276;28;20211;-68
2023/06/12 08:36:19;;;;;;;8.13;5.00;;;;;;;26.28;41.22;100452.03;4955918;28;22161;-69
2023/06/12 08:38:47;;;;;;;10.02;6.03;;;;;;;26.40;40.77;100451.91;4952466;28;20224;-71
2023/06/12 08:41:18;;;;;;;6.63;4.95;;;;;;;26.50;41.00;100455.56;4953704;28;20238;-69
2023/06/12 08:43:48;;;;;;;9.50;5.68;;;;;;;26.62;40.39;100454.63;4952755;28;20280;-69
2023/06/12 08:46:19;;;;;;;7.43;5.50;;;;;;;26.70;41.16;100451.44;4954045;28;20214;-69
2023/06/12 08:48:49;;;;;;;6.90;5.30;;;;;;;26.78;41.18;100448.28;4958138;28;20211;-72
2023/06/12 08:51:17;;;;;;;7.70;5.35;;;;;;;26.74;41.12;100450.69;4955134;28;20211;-68
2023/06/12 08:53:47;;;;;;;9.43;5.05;;;;;;;26.83;40.79;100442.88;4955962;28;20203;-67
2023/06/12 08:56:14;;;;;;;9.98;5.93;;;;;;;26.92;40.29;100438.66;4954490;28;20238;-74
2023/06/12 08:58:42;;;;;;;11.35;6.20;;;;;;;26.96;40.67;100434.38;4955329;28;20215;-70
2023/06/12 09:01:14;;;;;;;7.43;5.55;;;;;;;27.02;40.59;100436.03;4958288;28;20234;-69
2023/06/12 09:03:46;;;;;;;6.53;5.72;;;;;;;27.12;40.52;100433.44;4953852;28;20302;-68
2023/06/12 09:06:18;;;;;;;8.05;5.82;;;;;;;27.17;40.16;100424.50;4954790;28;20298;-69
2023/06/12 09:08:46;;;;;;;9.60;5.70;;;;;;;27.41;39.53;100424.97;4953900;28;20212;-69
2023/06/12 09:11:14;;;;;;;9.90;6.28;;;;;;;27.45;40.12;100434.25;4955728;28;20230;-67
2023/06/12 09:13:43;;;;;;;7.20;5.82;;;;;;;27.44;39.87;100433.44;4954696;28;20234;-70
2023/06/12 09:16:13;;;;;;;10.50;5.90;;;;;;;27.47;40.14;100423.94;4957359;28;20264;-70
2023/06/12 09:18:50;;;;;;;8.27;5.88;;;;;;;27.57;39.81;100430.31;4955495;28;21770;-70
2023/06/12 09:21:21;;;;;;;7.15;6.03;;;;;;;27.61;38.71;100425.16;4955029;28;20214;-72
2023/06/12 09:23:51;;;;;;;6.55;5.85;;;;;;;27.73;38.57;100428.50;4957305;28;20243;-73
2023/06/12 09:26:22;;;;;;;11.38;6.85;;;;;;;27.71;38.21;100420.59;4957173;28;20264;-72
2023/06/12 09:28:54;;;;;;;9.88;5.72;;;;;;;27.74;38.68;100415.72;4955514;28;20714;-72
2023/06/12 09:31:24;;;;;;;8.23;5.35;;;;;;;27.86;38.66;100416.34;4957197;28;20222;-69
2023/06/12 09:33:53;;;;;;;10.68;5.72;;;;;;;27.99;38.72;100410.41;4955792;28;20214;-76
2023/06/12 09:36:30;;;;;;;9.48;6.18;;;;;;;27.93;38.23;100412.28;4956972;28;20777;-71
2023/06/12 09:38:58;;;;;;;8.05;5.68;;;;;;;27.88;38.56;100412.25;4956955;28;20326;-71
2023/06/12 09:41:26;;;;;;;9.00;6.03;;;;;;;27.72;38.83;100413.25;4956135;28;20649;-70
2023/06/12 09:44:03;;;;;;;7.90;6.10;;;;;;;27.67;38.86;100413.22;4957915;28;20203;-72
2023/06/12 09:46:33;;;;;;;8.93;5.53;;;;;;;27.59;38.80;100405.53;4953941;28;20684;-73
2023/06/12 09:49:03;;;;;;;6.88;5.63;;;;;;;27.58;38.64;100406.63;4954177;28;20290;-71
2023/06/12 09:51:33;;;;;;;9.70;6.07;;;;;;;27.56;38.05;100400.59;4956507;28;20281;-71
2023/06/12 09:54:02;;;;;;;8.85;6.20;;;;;;;27.47;38.84;100404.84;4955425;28;20215;-71
2023/06/12 09:56:30;;;;;;;8.05;6.03;;;;;;;27.58;38.59;100410.16;4957290;28;20238;-70
2023/06/12 09:59:00;;;;;;;6.90;5.90;;;;;;;27.77;38.22;100396.94;4956015;28;20262;-71
2023/06/12 10:01:28;;;;;;;6.20;5.57;;;;;;;27.75;37.67;100404.56;4952894;28;20866;-71
2023/06/12 10:04:00;;;;;;;9.20;6.07;;;;;;;27.61;38.54;100400.66;4955616;28;20207;-70
2023/06/12 10:06:31;;;;;;;7.43;6.00;;;;;;;27.66;39.02;100403.41;4953616;28;20694;-70
2023/06/12 10:08:59;;;;;;;10.85;7.72;;;;;;;27.86;39.03;100398.09;4955819;28;20224;-69
2023/06/12 10:11:27;;;;;;;7.55;5.60;;;;;;;28.00;38.21;100401.97;4954833;28;20218;-71
2023/06/12 10:13:56;;;;;;;6.97;5.10;;;;;;;28.24;36.65;100401.56;4954395;28;20203;-69
2023/06/12 10:16:25;;;;;;;10.38;5.13;;;;;;;28.38;36.52;100398.09;4956366;28;20607;-68
2023/06/12 10:18:57;;;;;;;6.47;5.03;;;;;;;28.60;35.24;100394.31;4953442;28;21395;-69
2023/06/12 10:21:27;;;;;;;12.27;5.38;;;;;;;28.83;33.73;100398.53;4956401;28;20238;-73
2023/06/12 10:23:56;;;;;;;8.35;5.30;;;;;;;28.86;34.45;100392.50;4955267;28;20238;-71
2023/06/12 10:26:25;;;;;;;9.30;5.50;;;;;;;29.10;34.24;100399.09;4955223;28;20347;-72
2023/06/12 10:28:55;;;;;;;6.20;4.80;;;;;;;29.16;34.07;100385.19;4955042;28;20227;-72
2023/06/12 10:31:24;;;;;;;7.68;5.00;;;;;;;29.56;31.72;100387.09;4956718;28;20289;-74
2023/06/12 10:34:04;;;;;;;6.50;5.18;;;;;;;29.27;32.53;100380.53;4956601;28;20218;-71
2023/06/12 10:36:39;;;;;;;6.15;5.05;;;;;;;29.45;31.82;100380.03;4953505;28;20257;-74
2023/06/12 10:39:16;;;;;;;7.72;4.90;;;;;;;29.56;32.17;100373.41;4954176;28;20678;-73
2023/06/12 10:41:55;;;;;;;6.43;5.00;;;;;;;29.47;31.79;100380.53;4953575;28;20214;-71
2023/06/12 10:44:37;;;;;;;6.95;5.25;;;;;;;29.57;31.96;100382.44;4956881;28;20602;-69
2023/06/12 10:47:05;;;;;;;6.60;4.90;;;;;;;29.70;32.44;100370.13;4955411;28;20528;-69
2023/06/12 10:49:55;;;;;;;6.93;5.18;;;;;;;29.89;32.55;100371.19;4956651;28;20297;-71
2023/06/12 10:52:22;;;;;;;10.10;5.55;;;;;;;29.87;31.97;100373.38;4958371;28;20298;-72
2023/06/12 10:55:14;;;;;;;8.02;5.40;;;;;;;29.86;31.71;100374.47;4959974;28;20315;-67
2023/06/12 10:57:47;;;;;;;8.02;5.13;;;;;;;29.74;31.50;100376.66;4957483;28;20685;-72
2023/06/12 11:00:17;;;;;;;8.07;5.70;;;;;;;29.99;30.95;100379.38;4960689;28;20229;-73
2023/06/12 11:02:47;;;;;;;6.35;4.93;;;;;;;30.06;32.06;100368.97;4959375;28;20755;-72
2023/06/12 11:05:19;;;;;;;9.07;5.90;;;;;;;29.88;30.17;100361.34;4959886;28;20215;-71
2023/06/12 11:07:48;;;;;;;8.23;5.78;;;;;;;29.76;29.68;100363.56;4958594;28;20298;-71
2023/06/12 11:10:20;;;;;;;7.95;5.80;;;;;;;29.75;29.75;100367.38;4961697;28;20716;-69
2023/06/12 11:12:51;;;;;;;6.43;5.47;;;;;;;29.75;29.38;100356.44;4958626;28;20755;-70
2023/06/12 11:15:22;;;;;;;6.22;4.78;;;;;;;29.86;30.51;100369.00;4958782;28;20214;-71
2023/06/12 11:17:50;;;;;;;7.80;5.50;;;;;;;29.92;28.65;100356.94;4956024;28;20241;-69
2023/06/12 11:20:22;;;;;;;8.43;5.35;;;;;;;30.04;29.53;100359.41;4956354;28;20295;-69
2023/06/12 11:22:58;;;;;;;10.65;5.63;;;;;;;30.14;29.57;100362.91;4956936;28;20243;-72
2023/06/12 11:25:25;;;;;;;9.20;5.07;;;;;;;30.14;29.04;100353.88;4956289;28;20264;-71
2023/06/12 11:27:54;;;;;;;8.63;5.38;;;;;;;30.27;28.83;100356.81;4958492;28;20223;-71
2023/06/12 11:30:25;;;;;;;7.60;5.38;;;;;;;30.36;29.26;100353.50;4958013;28;20242;-72
2023/06/12 11:33:07;;;;;;;10.10;5.38;;;;;;;30.43;28.77;100351.28;4955640;28;20210;-72
2023/06/12 11:35:41;;;;;;;7.22;5.30;;;;;;;30.52;29.89;100344.94;4959442;28;20297;-74